createdAt,value
2022-07-31T00:00:22.010Z,18.90
2022-07-31T00:02:49.163Z,18.90
2022-07-31T00:05:16.273Z,18.80
2022-07-31T00:07:43.502Z,18.80
2022-07-31T00:10:11.098Z,18.80
2022-07-31T00:12:38.210Z,18.80
2022-07-31T00:15:08.075Z,18.80
2022-07-31T00:17:35.151Z,18.80
2022-07-31T00:20:02.409Z,18.80
2022-07-31T00:22:30.161Z,18.70
2022-07-31T00:24:57.635Z,18.80
2022-07-31T00:27:24.917Z,18.70
2022-07-31T00:29:52.152Z,18.70
2022-07-31T00:32:19.255Z,18.70
2022-07-31T00:34:46.401Z,18.70
2022-07-31T00:37:13.440Z,18.70
2022-07-31T00:39:40.582Z,18.70
2022-07-31T00:42:21.242Z,18.70
2022-07-31T00:44:49.149Z,18.80
2022-07-31T00:47:17.256Z,18.70
2022-07-31T00:49:45.894Z,18.70
2022-07-31T00:52:13.582Z,18.70
2022-07-31T00:54:40.893Z,18.70
2022-07-31T00:57:08.115Z,18.70
2022-07-31T00:59:35.351Z,18.70
2022-07-31T01:02:02.632Z,18.70
2022-07-31T01:04:31.179Z,18.70
2022-07-31T01:07:01.225Z,18.60
2022-07-31T01:09:29.296Z,18.70
2022-07-31T01:12:21.016Z,18.70
2022-07-31T01:15:01.505Z,18.70
2022-07-31T01:17:31.204Z,18.70
2022-07-31T01:19:58.960Z,18.60
2022-07-31T01:23:02.802Z,18.60
2022-07-31T01:26:06.865Z,18.60
2022-07-31T01:28:59.044Z,18.60
2022-07-31T01:31:35.201Z,18.50
2022-07-31T01:34:54.711Z,18.50
2022-07-31T01:37:37.071Z,18.50
2022-07-31T01:40:15.584Z,18.50
2022-07-31T01:42:53.831Z,18.50
2022-07-31T01:45:22.485Z,18.60
2022-07-31T01:47:51.983Z,18.60
2022-07-31T01:50:42.329Z,18.60
2022-07-31T01:53:09.098Z,18.60
2022-07-31T01:56:01.973Z,18.60
2022-07-31T01:58:29.472Z,18.70
2022-07-31T02:00:58.458Z,18.70
2022-07-31T02:03:43.676Z,18.70
2022-07-31T02:06:19.023Z,18.70
2022-07-31T02:08:49.191Z,18.70
2022-07-31T02:11:19.031Z,18.70
2022-07-31T02:13:48.408Z,18.70
2022-07-31T02:16:18.765Z,18.70
2022-07-31T02:18:49.799Z,18.70
2022-07-31T02:21:17.801Z,18.70
2022-07-31T02:23:45.001Z,18.60
2022-07-31T02:26:14.515Z,18.60
2022-07-31T02:28:43.878Z,18.60
2022-07-31T02:31:13.424Z,18.60
2022-07-31T02:33:45.753Z,18.60
2022-07-31T02:36:14.431Z,18.70
2022-07-31T02:38:44.291Z,18.70
2022-07-31T02:41:12.929Z,18.70
2022-07-31T02:43:40.901Z,18.70
2022-07-31T02:46:12.447Z,18.70
2022-07-31T02:48:40.224Z,18.60
2022-07-31T02:51:08.506Z,18.60
2022-07-31T02:53:37.610Z,18.70
2022-07-31T02:56:06.524Z,18.70
2022-07-31T02:58:33.880Z,18.70
2022-07-31T03:01:06.289Z,18.70
2022-07-31T03:03:33.720Z,18.70
2022-07-31T03:06:01.174Z,18.70
2022-07-31T03:08:28.942Z,18.70
2022-07-31T03:10:58.361Z,18.70
2022-07-31T03:13:29.236Z,18.70
2022-07-31T03:15:57.248Z,18.70
2022-07-31T03:18:26.652Z,18.70
2022-07-31T03:20:56.281Z,18.70
2022-07-31T03:23:27.491Z,18.70
2022-07-31T03:25:55.094Z,18.70
2022-07-31T03:28:22.373Z,18.60
2022-07-31T03:30:56.235Z,18.60
2022-07-31T03:33:23.993Z,18.60
2022-07-31T03:35:51.527Z,18.60
2022-07-31T03:38:38.517Z,18.60
2022-07-31T03:41:06.069Z,18.60
2022-07-31T03:43:44.073Z,18.60
2022-07-31T03:46:20.692Z,18.60
2022-07-31T03:48:51.877Z,18.60
2022-07-31T03:51:19.670Z,18.60
2022-07-31T03:53:48.090Z,18.70
2022-07-31T03:56:17.607Z,18.70
2022-07-31T03:58:49.748Z,18.70
2022-07-31T04:01:21.170Z,18.70
2022-07-31T04:03:49.105Z,18.70
2022-07-31T04:06:16.154Z,18.70
2022-07-31T04:08:43.395Z,18.70
2022-07-31T04:11:10.543Z,18.70
2022-07-31T04:13:37.899Z,18.70
2022-07-31T04:16:05.148Z,18.70
2022-07-31T04:18:32.231Z,18.70
2022-07-31T04:20:59.892Z,18.70
2022-07-31T04:23:32.328Z,18.70
2022-07-31T04:26:00.353Z,18.80
2022-07-31T04:28:27.518Z,18.80
2022-07-31T04:30:54.657Z,18.80
2022-07-31T04:33:21.899Z,18.80
2022-07-31T04:35:49.019Z,18.80
2022-07-31T04:38:17.077Z,18.80
2022-07-31T04:40:44.292Z,18.80
2022-07-31T04:43:12.813Z,18.80
2022-07-31T04:45:40.094Z,18.80
2022-07-31T04:48:07.272Z,18.80
2022-07-31T04:50:34.412Z,18.80
2022-07-31T04:53:01.468Z,18.90
2022-07-31T04:55:29.396Z,18.90
2022-07-31T04:57:56.519Z,18.90
2022-07-31T05:00:23.781Z,18.90
2022-07-31T05:02:51.446Z,18.80
2022-07-31T05:05:18.670Z,18.80
2022-07-31T05:07:46.793Z,18.80
2022-07-31T05:10:33.865Z,18.80
2022-07-31T05:13:01.071Z,18.80
2022-07-31T05:15:28.449Z,18.80
2022-07-31T05:17:55.563Z,18.80
2022-07-31T05:20:23.642Z,18.80
2022-07-31T05:22:52.051Z,18.80
2022-07-31T05:25:19.251Z,18.80
2022-07-31T05:27:46.316Z,18.80
2022-07-31T05:30:17.246Z,18.80
2022-07-31T05:32:58.557Z,18.80
2022-07-31T05:35:25.880Z,18.70
2022-07-31T05:37:52.932Z,18.80
2022-07-31T05:40:20.124Z,18.80
2022-07-31T05:42:47.212Z,18.80
2022-07-31T05:45:14.366Z,18.80
2022-07-31T05:47:41.728Z,18.70
2022-07-31T05:50:09.984Z,18.70
2022-07-31T05:52:37.183Z,18.70
2022-07-31T05:55:04.935Z,18.70
2022-07-31T05:57:33.131Z,18.80
2022-07-31T06:00:02.010Z,18.80
2022-07-31T06:02:31.496Z,18.80
2022-07-31T06:04:58.649Z,18.80
2022-07-31T06:07:25.742Z,18.80
2022-07-31T06:09:53.138Z,18.80
2022-07-31T06:12:20.296Z,18.90
2022-07-31T06:14:47.399Z,18.90
2022-07-31T06:17:14.610Z,19.00
2022-07-31T06:19:41.721Z,19.00
2022-07-31T06:22:09.193Z,19.10
2022-07-31T06:24:38.295Z,19.20
2022-07-31T06:27:08.702Z,19.30
2022-07-31T06:29:56.687Z,19.40
2022-07-31T06:32:24.606Z,19.50
2022-07-31T06:34:51.765Z,19.50
2022-07-31T06:37:19.821Z,19.70
2022-07-31T06:39:56.004Z,19.80
2022-07-31T06:42:26.100Z,19.90
2022-07-31T06:44:54.059Z,20.00
2022-07-31T06:47:25.121Z,20.10
2022-07-31T06:49:53.609Z,20.20
2022-07-31T06:52:20.900Z,20.20
2022-07-31T06:54:48.069Z,20.30
2022-07-31T06:57:15.631Z,20.30
2022-07-31T06:59:42.704Z,20.40
2022-07-31T07:02:10.092Z,20.40
2022-07-31T07:04:57.397Z,20.50
2022-07-31T07:07:24.272Z,20.60
2022-07-31T07:09:59.025Z,20.70
2022-07-31T07:12:26.877Z,20.80
2022-07-31T07:14:55.012Z,20.80
2022-07-31T07:17:25.904Z,20.90
2022-07-31T07:19:55.913Z,21.00
2022-07-31T07:22:31.131Z,21.10
2022-07-31T07:25:01.120Z,21.20
2022-07-31T07:27:28.542Z,21.30
2022-07-31T07:29:56.432Z,21.40
2022-07-31T07:32:23.600Z,21.40
2022-07-31T07:34:59.975Z,21.50
2022-07-31T07:37:28.731Z,21.60
2022-07-31T07:39:56.880Z,21.60
2022-07-31T07:42:23.977Z,21.80
2022-07-31T07:44:51.046Z,21.80
2022-07-31T07:47:18.134Z,21.90
2022-07-31T07:49:45.258Z,22.00
2022-07-31T07:52:12.702Z,22.10
2022-07-31T07:54:42.876Z,22.10
2022-07-31T07:57:16.969Z,22.20
2022-07-31T07:59:44.404Z,22.20
2022-07-31T08:02:12.403Z,22.20
2022-07-31T08:04:39.737Z,22.40
2022-07-31T08:07:07.385Z,22.40
2022-07-31T08:09:35.986Z,22.50
2022-07-31T08:12:04.785Z,22.50
2022-07-31T08:14:32.029Z,22.70
2022-07-31T08:16:59.122Z,22.80
2022-07-31T08:19:26.243Z,22.90
2022-07-31T08:21:53.293Z,23.00
2022-07-31T08:24:20.354Z,23.10
2022-07-31T08:27:08.755Z,23.10
2022-07-31T08:29:37.909Z,23.10
2022-07-31T08:32:05.862Z,23.20
2022-07-31T08:34:33.332Z,23.40
2022-07-31T08:37:50.392Z,23.50
2022-07-31T08:39:50.377Z,23.60
2022-07-31T08:42:18.761Z,23.70
2022-07-31T08:44:46.912Z,23.70
2022-07-31T08:47:16.338Z,23.80
2022-07-31T08:49:49.510Z,23.90
2022-07-31T08:52:24.994Z,23.90
2022-07-31T08:54:53.778Z,24.00
2022-07-31T08:57:21.377Z,24.20
2022-07-31T08:59:52.450Z,24.20
2022-07-31T09:02:19.595Z,24.30
2022-07-31T09:04:51.958Z,24.40
2022-07-31T09:07:19.865Z,24.40
2022-07-31T09:09:52.249Z,24.40
2022-07-31T09:12:34.641Z,24.40
2022-07-31T09:15:02.391Z,24.40
2022-07-31T09:17:36.723Z,24.50
2022-07-31T09:20:05.791Z,24.50
2022-07-31T09:22:33.930Z,24.50
2022-07-31T09:25:18.868Z,24.60
2022-07-31T09:27:48.553Z,24.70
2022-07-31T09:30:16.824Z,24.80
2022-07-31T09:32:47.298Z,24.80
2022-07-31T09:35:15.539Z,24.90
2022-07-31T09:37:47.686Z,24.90
2022-07-31T09:40:15.324Z,25.00
2022-07-31T09:42:55.449Z,25.00
2022-07-31T09:45:24.396Z,24.90
2022-07-31T09:48:15.258Z,24.90
2022-07-31T09:50:55.365Z,24.80
2022-07-31T09:53:24.125Z,24.90
2022-07-31T09:55:57.574Z,25.00
2022-07-31T09:58:24.865Z,25.10
2022-07-31T10:00:53.996Z,25.30
2022-07-31T10:03:22.454Z,25.30
2022-07-31T10:05:50.277Z,25.30
2022-07-31T10:08:17.995Z,25.30
2022-07-31T10:10:46.014Z,25.30
2022-07-31T10:13:19.361Z,25.40
2022-07-31T10:15:50.111Z,25.40
2022-07-31T10:18:35.682Z,25.50
2022-07-31T10:21:06.936Z,25.60
2022-07-31T10:23:39.147Z,25.80
2022-07-31T10:26:06.632Z,26.00
2022-07-31T10:28:38.100Z,26.10
2022-07-31T10:31:06.172Z,26.20
2022-07-31T10:33:44.077Z,26.20
2022-07-31T10:36:21.617Z,26.20
2022-07-31T10:39:06.305Z,26.10
2022-07-31T10:42:06.380Z,26.20
2022-07-31T10:44:46.005Z,26.30
2022-07-31T10:47:17.750Z,26.40
2022-07-31T10:49:49.764Z,26.50
2022-07-31T10:52:35.101Z,26.70
2022-07-31T10:55:02.411Z,26.80
2022-07-31T10:57:34.715Z,27.00
2022-07-31T11:00:29.510Z,27.10
2022-07-31T11:02:57.210Z,27.10
2022-07-31T11:05:26.048Z,27.10
2022-07-31T11:08:06.444Z,27.10
2022-07-31T11:10:34.504Z,26.90
2022-07-31T11:13:11.138Z,26.80
2022-07-31T11:15:38.595Z,26.60
2022-07-31T11:18:24.930Z,26.70
2022-07-31T11:21:13.714Z,26.80
2022-07-31T11:23:57.611Z,26.90
2022-07-31T11:26:32.804Z,26.80
2022-07-31T11:30:01.612Z,26.70
2022-07-31T11:32:01.583Z,26.70
2022-07-31T11:34:28.650Z,26.80
2022-07-31T11:36:55.921Z,26.70
2022-07-31T11:39:34.166Z,26.80
2022-07-31T11:42:05.125Z,26.70
2022-07-31T11:44:35.795Z,26.80
2022-07-31T11:47:03.258Z,26.70
2022-07-31T11:49:59.910Z,26.50
2022-07-31T11:52:30.978Z,26.40
2022-07-31T11:55:09.373Z,26.50
2022-07-31T11:57:50.957Z,26.70
2022-07-31T12:00:26.982Z,27.00
2022-07-31T12:02:57.528Z,27.30
2022-07-31T12:05:37.792Z,27.60
2022-07-31T12:08:07.993Z,27.90
2022-07-31T12:10:35.665Z,28.00
2022-07-31T12:13:03.183Z,28.00
2022-07-31T12:15:30.514Z,27.80
2022-07-31T12:18:04.236Z,27.70
2022-07-31T12:20:36.961Z,27.50
2022-07-31T12:23:06.428Z,27.40
2022-07-31T12:25:42.165Z,27.60
2022-07-31T12:28:10.234Z,27.60
2022-07-31T12:30:37.596Z,27.70
2022-07-31T12:33:07.190Z,27.70
2022-07-31T12:35:56.503Z,27.90
2022-07-31T12:38:47.623Z,28.20
2022-07-31T12:41:15.250Z,28.50
2022-07-31T12:43:51.836Z,28.40
2022-07-31T12:46:40.363Z,28.30
2022-07-31T12:49:08.601Z,28.20
2022-07-31T12:51:44.917Z,28.00
2022-07-31T12:54:18.096Z,27.90
2022-07-31T12:56:46.705Z,28.10
2022-07-31T12:59:14.535Z,28.10
2022-07-31T13:01:42.021Z,28.10
2022-07-31T13:04:19.038Z,28.00
2022-07-31T13:06:51.666Z,27.90
2022-07-31T13:09:19.625Z,27.70
2022-07-31T13:11:48.476Z,27.40
2022-07-31T13:14:17.133Z,27.20
2022-07-31T13:16:45.721Z,27.10
2022-07-31T13:19:13.803Z,27.30
2022-07-31T13:21:49.571Z,27.50
2022-07-31T13:24:19.775Z,27.50
2022-07-31T13:26:48.744Z,27.40
2022-07-31T13:29:17.061Z,27.20
2022-07-31T13:31:44.642Z,27.10
2022-07-31T13:34:12.861Z,27.00
2022-07-31T13:36:40.173Z,27.10
2022-07-31T13:39:11.017Z,27.40
2022-07-31T13:41:39.480Z,27.50
2022-07-31T13:44:08.282Z,27.50
2022-07-31T13:46:35.954Z,27.40
2022-07-31T13:49:08.225Z,27.30
2022-07-31T13:51:36.801Z,27.70
2022-07-31T13:54:04.684Z,27.80
2022-07-31T13:56:39.791Z,28.00
2022-07-31T13:59:12.553Z,28.20
2022-07-31T14:02:03.957Z,28.60
2022-07-31T14:04:31.367Z,29.00
2022-07-31T14:07:01.322Z,29.10
2022-07-31T14:09:30.828Z,29.20
2022-07-31T14:11:57.912Z,29.40
2022-07-31T14:14:25.246Z,29.70
2022-07-31T14:16:52.365Z,30.00
2022-07-31T14:19:20.496Z,30.30
2022-07-31T14:21:56.303Z,30.60
2022-07-31T14:24:36.819Z,30.80
2022-07-31T14:27:04.176Z,30.90
2022-07-31T14:29:31.245Z,31.00
2022-07-31T14:32:03.450Z,31.10
2022-07-31T14:34:35.676Z,31.30
2022-07-31T14:37:04.870Z,31.40
2022-07-31T14:39:32.238Z,31.40
2022-07-31T14:41:59.318Z,30.90
2022-07-31T14:44:28.820Z,30.50
2022-07-31T14:46:56.353Z,30.00
2022-07-31T14:49:23.697Z,29.70
2022-07-31T14:51:50.797Z,29.50
2022-07-31T14:54:17.888Z,29.30
2022-07-31T14:57:00.822Z,29.20
2022-07-31T14:59:29.653Z,29.10
2022-07-31T15:01:57.828Z,28.90
2022-07-31T15:04:25.382Z,28.90
2022-07-31T15:07:03.118Z,28.80
2022-07-31T15:09:39.766Z,28.60
2022-07-31T15:12:07.585Z,28.50
2022-07-31T15:14:35.453Z,28.30
2022-07-31T15:17:03.115Z,28.10
2022-07-31T15:19:30.522Z,28.00
2022-07-31T15:22:15.963Z,27.90
2022-07-31T15:24:49.626Z,27.80
2022-07-31T15:27:19.029Z,27.70
2022-07-31T15:30:03.931Z,27.60
2022-07-31T15:32:38.423Z,27.80
2022-07-31T15:35:09.270Z,28.20
2022-07-31T15:37:38.467Z,28.50
2022-07-31T15:40:09.176Z,28.60
2022-07-31T15:42:40.503Z,28.50
2022-07-31T15:45:14.205Z,28.30
2022-07-31T15:47:42.649Z,28.10
2022-07-31T15:50:12.241Z,27.90
2022-07-31T15:52:39.924Z,27.70
2022-07-31T15:55:09.107Z,27.60
2022-07-31T15:57:36.504Z,27.40
2022-07-31T16:00:06.200Z,27.30
2022-07-31T16:02:33.426Z,27.30
2022-07-31T16:05:17.248Z,27.50
2022-07-31T16:08:29.337Z,27.60
2022-07-31T16:10:35.377Z,27.60
2022-07-31T16:13:02.491Z,27.60
2022-07-31T16:15:29.657Z,27.50
2022-07-31T16:17:56.736Z,27.40
2022-07-31T16:20:26.222Z,27.30
2022-07-31T16:23:01.354Z,27.20
2022-07-31T16:25:34.474Z,27.10
2022-07-31T16:28:04.427Z,27.10
2022-07-31T16:30:32.033Z,27.30
2022-07-31T16:32:59.229Z,27.50
2022-07-31T16:35:26.905Z,27.70
2022-07-31T16:37:54.994Z,27.80
2022-07-31T16:40:28.901Z,27.80
2022-07-31T16:43:48.585Z,27.70
2022-07-31T16:45:52.485Z,27.60
2022-07-31T16:48:19.928Z,27.50
2022-07-31T16:50:53.677Z,27.40
2022-07-31T16:54:11.488Z,27.30
2022-07-31T16:56:14.908Z,27.10
2022-07-31T16:58:43.674Z,27.10
2022-07-31T17:01:58.487Z,27.00
2022-07-31T17:04:03.652Z,26.90
2022-07-31T17:06:36.093Z,26.90
2022-07-31T17:09:17.283Z,26.80
2022-07-31T17:11:48.112Z,26.80
2022-07-31T17:14:17.372Z,26.70
2022-07-31T17:16:48.047Z,26.60
2022-07-31T17:19:41.682Z,26.50
2022-07-31T17:22:08.109Z,26.40
2022-07-31T17:24:38.213Z,26.30
2022-07-31T17:27:08.481Z,26.30
2022-07-31T17:29:37.842Z,26.20
2022-07-31T17:32:05.772Z,26.20
2022-07-31T17:34:33.408Z,26.10
2022-07-31T17:37:00.555Z,26.10
2022-07-31T17:39:30.810Z,26.00
2022-07-31T17:41:59.385Z,26.00
2022-07-31T17:44:26.682Z,25.90
2022-07-31T17:46:54.949Z,25.90
2022-07-31T17:49:22.128Z,25.80
2022-07-31T17:51:59.118Z,25.70
2022-07-31T17:54:30.318Z,25.60
2022-07-31T17:56:58.063Z,25.60
2022-07-31T17:59:26.021Z,25.50
2022-07-31T18:01:59.543Z,25.40
2022-07-31T18:04:32.593Z,25.40
2022-07-31T18:07:04.308Z,25.30
2022-07-31T18:09:32.429Z,25.20
2022-07-31T18:11:59.887Z,25.10
2022-07-31T18:14:27.289Z,25.10
2022-07-31T18:16:55.145Z,25.00
2022-07-31T18:19:22.751Z,24.90
2022-07-31T18:21:51.254Z,24.80
2022-07-31T18:24:19.688Z,24.70
2022-07-31T18:26:47.318Z,24.60
2022-07-31T18:29:16.786Z,24.60
2022-07-31T18:31:44.803Z,24.50
2022-07-31T18:34:12.408Z,24.40
2022-07-31T18:36:40.419Z,24.30
2022-07-31T18:39:07.772Z,24.20
2022-07-31T18:41:34.928Z,24.20
2022-07-31T18:44:02.185Z,24.10
2022-07-31T18:46:32.043Z,24.00
2022-07-31T18:49:00.147Z,24.00
2022-07-31T18:51:29.777Z,23.90
2022-07-31T18:53:57.891Z,23.90
2022-07-31T18:56:26.395Z,23.90
2022-07-31T18:58:54.417Z,23.80
2022-07-31T19:01:23.626Z,23.90
2022-07-31T19:03:52.194Z,23.80
2022-07-31T19:06:19.893Z,23.80
2022-07-31T19:08:49.448Z,23.70
2022-07-31T19:11:16.749Z,23.70
2022-07-31T19:13:43.987Z,23.60
2022-07-31T19:16:11.277Z,23.50
2022-07-31T19:18:40.301Z,23.50
2022-07-31T19:21:22.805Z,23.50
2022-07-31T19:23:57.686Z,23.40
2022-07-31T19:26:24.926Z,23.40
2022-07-31T19:28:52.046Z,23.30
2022-07-31T19:31:19.222Z,23.30
2022-07-31T19:33:46.475Z,23.20
2022-07-31T19:36:15.361Z,23.20
2022-07-31T19:38:44.476Z,23.10
2022-07-31T19:41:12.549Z,23.10
2022-07-31T19:43:39.766Z,23.00
2022-07-31T19:46:11.409Z,23.00
2022-07-31T19:48:45.143Z,22.90
2022-07-31T19:51:14.286Z,22.90
2022-07-31T19:53:42.115Z,22.80
2022-07-31T19:56:11.322Z,22.80
2022-07-31T19:58:42.056Z,22.70
2022-07-31T20:01:10.739Z,22.70
2022-07-31T20:03:38.227Z,22.60
2022-07-31T20:06:05.911Z,22.60
2022-07-31T20:08:34.851Z,22.60
2022-07-31T20:11:04.472Z,22.50
2022-07-31T20:13:33.854Z,22.50
2022-07-31T20:16:01.618Z,22.50
2022-07-31T20:18:29.574Z,22.50
2022-07-31T20:21:03.771Z,22.50
2022-07-31T20:23:34.322Z,22.40
2022-07-31T20:26:02.011Z,22.40
2022-07-31T20:28:29.337Z,22.40
2022-07-31T20:30:56.848Z,22.30
2022-07-31T20:33:24.146Z,22.30
2022-07-31T20:35:51.478Z,22.30
2022-07-31T20:38:24.113Z,22.20
2022-07-31T20:40:55.357Z,22.20
2022-07-31T20:43:28.934Z,22.20
2022-07-31T20:45:58.292Z,22.20
2022-07-31T20:48:32.316Z,22.10
2022-07-31T20:51:01.671Z,22.10
2022-07-31T20:53:29.804Z,22.10
2022-07-31T20:55:57.596Z,22.00
2022-07-31T20:58:26.057Z,22.00
2022-07-31T21:00:53.744Z,22.00
2022-07-31T21:03:21.436Z,21.90
2022-07-31T21:05:49.425Z,21.90
2022-07-31T21:08:17.223Z,21.80
2022-07-31T21:10:45.030Z,21.80
2022-07-31T21:13:12.999Z,21.80
2022-07-31T21:15:44.619Z,21.70
2022-07-31T21:18:17.416Z,21.70
2022-07-31T21:20:50.726Z,21.60
2022-07-31T21:23:25.931Z,21.60
2022-07-31T21:25:56.095Z,21.50
2022-07-31T21:28:25.926Z,21.50
2022-07-31T21:30:56.188Z,21.50
2022-07-31T21:33:27.811Z,21.50
2022-07-31T21:35:55.957Z,21.40
2022-07-31T21:38:24.196Z,21.50
2022-07-31T21:40:51.977Z,21.40
2022-07-31T21:43:22.617Z,21.40
2022-07-31T21:45:57.182Z,21.40
2022-07-31T21:48:27.260Z,21.30
2022-07-31T21:50:55.335Z,21.30
2022-07-31T21:53:23.200Z,21.30
2022-07-31T21:55:50.567Z,21.20
2022-07-31T21:58:17.790Z,21.20
2022-07-31T22:00:45.267Z,21.20
2022-07-31T22:03:12.555Z,21.20
2022-07-31T22:05:58.567Z,21.20
2022-07-31T22:08:25.777Z,21.20
2022-07-31T22:10:53.256Z,21.10
2022-07-31T22:13:20.735Z,21.10
2022-07-31T22:15:51.553Z,21.00
2022-07-31T22:18:35.819Z,21.00
2022-07-31T22:21:07.143Z,20.90
2022-07-31T22:23:35.730Z,20.80
2022-07-31T22:26:03.437Z,20.80
2022-07-31T22:28:31.295Z,20.80
2022-07-31T22:30:58.748Z,20.70
2022-07-31T22:33:26.073Z,20.70
2022-07-31T22:35:58.901Z,20.70
2022-07-31T22:38:30.515Z,20.60
2022-07-31T22:40:59.820Z,20.60
2022-07-31T22:44:11.287Z,20.50
2022-07-31T22:46:15.777Z,20.50
2022-07-31T22:48:46.013Z,20.50
2022-07-31T22:51:14.780Z,20.40
2022-07-31T22:53:44.016Z,20.40
2022-07-31T22:56:11.272Z,20.30
2022-07-31T22:58:57.281Z,20.30
2022-07-31T23:01:24.450Z,20.30
2022-07-31T23:03:53.672Z,20.30
2022-07-31T23:06:30.843Z,20.20
2022-07-31T23:09:00.333Z,20.20
2022-07-31T23:11:27.845Z,20.20
2022-07-31T23:13:54.933Z,20.10
2022-07-31T23:16:22.340Z,20.00
2022-07-31T23:18:50.647Z,20.00
2022-07-31T23:21:19.430Z,20.00
2022-07-31T23:23:48.775Z,20.00
2022-07-31T23:26:21.741Z,19.90
2022-07-31T23:28:48.845Z,19.90
2022-07-31T23:31:16.935Z,19.80
2022-07-31T23:33:46.647Z,19.70
2022-07-31T23:36:15.216Z,19.70
2022-07-31T23:38:43.841Z,19.70
2022-07-31T23:41:11.829Z,19.60
2022-07-31T23:43:39.063Z,19.60
2022-07-31T23:46:06.351Z,19.60
2022-07-31T23:48:35.962Z,19.50
2022-07-31T23:51:03.354Z,19.50
2022-07-31T23:53:30.441Z,19.40
2022-07-31T23:55:57.504Z,19.40
2022-07-31T23:58:24.703Z,19.40
